Airfield :
LOGIN :

Register | Disclaimer

   EN    FR    IT 

 










Legend :    VFR   Marginal VFR   IFR   Intensive IFR   Very Intensive IFR
Visi :
Ceiling :
>= 8 km
>= 3000ft
5 to 8 km
1000 to 3000 ft
1500m to 5 km
500 to 1000 ft
800 to 1500m
200 to 500 ft
< 800m
< 200 ft
Symbols :   Thunderstorms  Fog  Heavy snow  Heavy precipitations  Wind > 20 kt
SIGMETs :     Misc.  Thunderstorms  Icing  Turbulence  Mountain Waves  Volcanic Ashes






- Airport Elevation : 144 ft
- IATA code : PGF


LFMP - Perpignan

CURRENT METAR :
  • 251030Z AUTO 13012KT 100V180 CAVOK 18/08 Q1016 NOSIG

EXPIRED METARs :
  • 251000Z AUTO 09003KT 360V170 CAVOK 15/09 Q1016 NOSIG
  • 250930Z AUTO VRB03KT CAVOK 11/08 Q1016 NOSIG
  • 250900Z AUTO VRB02KT CAVOK 10/08 Q1016 NOSIG
  • 250830Z AUTO VRB02KT CAVOK 08/07 Q1016 NOSIG
  • 250800Z AUTO 26004KT 220V320 8000 NSC 06/05 Q1016 NOSIG

TAF TAF LFMP
Valid from the 25 at 09:00 until the 26 at 09:00 UTC


250800Z 2509/2609 VRB03KT 9999 FEW015
BECMG 2510/2512 14012KT
BECMG 2517/2519 BKN060
TEMPO 2600/2609 BKN020
PROB40
TEMPO 2603/2609 RA BKN010
ATIS : +33 4 68 63 75 12



MET'MAP, your aeronautical weather chart ! - Copyright ORBIFLY December 2007 - Disclaimer

ORBIFLY MET'MAP TEAM :

Programming & Development : Alexandra Zaïnal
Concept & original design : Baudouin d'Aumeries
Assistance for programming : Marc-Olivier Méhu
Technical & hardware support : Manuel Goepfert

Contact : metmap@orbifly.com




SOURCES & CREDITS :

   NOAA